sensor_id;sensor_type;location;lat;lon;timestamp;P1;durP1;ratioP1;P2;durP2;ratioP2
13487;SDS011;6816;48.506;9.050;2022-10-31T00:00:51;5.23;;;3.43;;
13487;SDS011;6816;48.506;9.050;2022-10-31T00:03:51;4.07;;;2.83;;
13487;SDS011;6816;48.506;9.050;2022-10-31T00:06:52;5.20;;;3.60;;
13487;SDS011;6816;48.506;9.050;2022-10-31T00:09:53;4.03;;;3.37;;
13487;SDS011;6816;48.506;9.050;2022-10-31T00:12:53;5.80;;;3.40;;
13487;SDS011;6816;48.506;9.050;2022-10-31T00:15:54;4.10;;;3.10;;
13487;SDS011;6816;48.506;9.050;2022-10-31T00:18:59;3.60;;;3.07;;
13487;SDS011;6816;48.506;9.050;2022-10-31T00:22:01;6.03;;;3.23;;
13487;SDS011;6816;48.506;9.050;2022-10-31T00:25:02;4.10;;;2.87;;
13487;SDS011;6816;48.506;9.050;2022-10-31T00:28:03;4.43;;;3.20;;
13487;SDS011;6816;48.506;9.050;2022-10-31T00:31:06;5.07;;;2.80;;
13487;SDS011;6816;48.506;9.050;2022-10-31T00:34:07;4.43;;;2.83;;
13487;SDS011;6816;48.506;9.050;2022-10-31T00:37:08;3.70;;;2.63;;
13487;SDS011;6816;48.506;9.050;2022-10-31T00:40:08;3.97;;;2.63;;
13487;SDS011;6816;48.506;9.050;2022-10-31T00:43:10;5.10;;;3.00;;
13487;SDS011;6816;48.506;9.050;2022-10-31T00:46:11;4.67;;;2.93;;
13487;SDS011;6816;48.506;9.050;2022-10-31T00:49:12;5.77;;;2.93;;
13487;SDS011;6816;48.506;9.050;2022-10-31T00:52:13;3.70;;;2.80;;
13487;SDS011;6816;48.506;9.050;2022-10-31T00:55:13;3.90;;;2.57;;
13487;SDS011;6816;48.506;9.050;2022-10-31T00:58:14;2.97;;;2.30;;
13487;SDS011;6816;48.506;9.050;2022-10-31T01:01:14;3.13;;;2.40;;
13487;SDS011;6816;48.506;9.050;2022-10-31T01:04:15;2.97;;;1.80;;
13487;SDS011;6816;48.506;9.050;2022-10-31T01:07:16;2.20;;;2.00;;
13487;SDS011;6816;48.506;9.050;2022-10-31T01:10:16;5.77;;;2.60;;
13487;SDS011;6816;48.506;9.050;2022-10-31T01:13:17;3.43;;;2.20;;
13487;SDS011;6816;48.506;9.050;2022-10-31T01:16:19;3.27;;;2.57;;
13487;SDS011;6816;48.506;9.050;2022-10-31T01:19:22;4.43;;;3.00;;
13487;SDS011;6816;48.506;9.050;2022-10-31T01:22:23;3.63;;;2.80;;
13487;SDS011;6816;48.506;9.050;2022-10-31T01:25:23;2.97;;;2.60;;
13487;SDS011;6816;48.506;9.050;2022-10-31T01:28:24;3.23;;;2.53;;
13487;SDS011;6816;48.506;9.050;2022-10-31T01:31:26;4.50;;;3.30;;
13487;SDS011;6816;48.506;9.050;2022-10-31T01:34:29;3.10;;;2.37;;
13487;SDS011;6816;48.506;9.050;2022-10-31T01:37:30;3.73;;;2.13;;
13487;SDS011;6816;48.506;9.050;2022-10-31T01:40:30;3.03;;;2.30;;
13487;SDS011;6816;48.506;9.050;2022-10-31T01:43:51;2.43;;;2.10;;
13487;SDS011;6816;48.506;9.050;2022-10-31T01:50:00;2.97;;;2.50;;
13487;SDS011;6816;48.506;9.050;2022-10-31T01:53:05;3.77;;;2.47;;
13487;SDS011;6816;48.506;9.050;2022-10-31T01:56:08;4.20;;;2.30;;
13487;SDS011;6816;48.506;9.050;2022-10-31T01:59:10;3.57;;;2.20;;
13487;SDS011;6816;48.506;9.050;2022-10-31T02:02:12;2.47;;;2.27;;
13487;SDS011;6816;48.506;9.050;2022-10-31T02:05:16;2.73;;;2.40;;
13487;SDS011;6816;48.506;9.050;2022-10-31T02:08:29;2.50;;;2.30;;
13487;SDS011;6816;48.506;9.050;2022-10-31T02:11:31;2.10;;;1.90;;
13487;SDS011;6816;48.506;9.050;2022-10-31T02:14:34;2.30;;;2.10;;
13487;SDS011;6816;48.506;9.050;2022-10-31T02:17:36;1.87;;;1.70;;
13487;SDS011;6816;48.506;9.050;2022-10-31T02:20:42;2.37;;;1.83;;
13487;SDS011;6816;48.506;9.050;2022-10-31T02:24:21;2.80;;;1.77;;
13487;SDS011;6816;48.506;9.050;2022-10-31T02:41:05;3.70;;;2.30;;
13487;SDS011;6816;48.506;9.050;2022-10-31T02:47:26;5.63;;;3.00;;
13487;SDS011;6816;48.506;9.050;2022-10-31T02:50:30;5.53;;;2.93;;
13487;SDS011;6816;48.506;9.050;2022-10-31T02:53:34;5.23;;;2.97;;
13487;SDS011;6816;48.506;9.050;2022-10-31T02:56:36;4.37;;;3.27;;
13487;SDS011;6816;48.506;9.050;2022-10-31T02:59:37;3.40;;;2.70;;
13487;SDS011;6816;48.506;9.050;2022-10-31T03:06:00;4.17;;;2.70;;
13487;SDS011;6816;48.506;9.050;2022-10-31T03:09:25;6.83;;;2.93;;
13487;SDS011;6816;48.506;9.050;2022-10-31T03:12:46;3.20;;;2.27;;
13487;SDS011;6816;48.506;9.050;2022-10-31T03:15:52;2.97;;;2.30;;
13487;SDS011;6816;48.506;9.050;2022-10-31T03:22:15;3.67;;;2.27;;
13487;SDS011;6816;48.506;9.050;2022-10-31T03:25:19;4.63;;;2.20;;
13487;SDS011;6816;48.506;9.050;2022-10-31T03:28:22;5.20;;;2.50;;
13487;SDS011;6816;48.506;9.050;2022-10-31T03:31:30;2.63;;;1.90;;
13487;SDS011;6816;48.506;9.050;2022-10-31T03:34:36;2.60;;;1.90;;
13487;SDS011;6816;48.506;9.050;2022-10-31T03:37:39;1.70;;;1.60;;
13487;SDS011;6816;48.506;9.050;2022-10-31T03:40:42;2.73;;;1.60;;
13487;SDS011;6816;48.506;9.050;2022-10-31T03:43:48;1.50;;;1.40;;
13487;SDS011;6816;48.506;9.050;2022-10-31T03:46:55;1.73;;;1.23;;
13487;SDS011;6816;48.506;9.050;2022-10-31T03:49:56;1.50;;;1.27;;
13487;SDS011;6816;48.506;9.050;2022-10-31T03:52:59;1.43;;;1.27;;
13487;SDS011;6816;48.506;9.050;2022-10-31T03:56:25;4.00;;;1.40;;
13487;SDS011;6816;48.506;9.050;2022-10-31T03:59:35;1.50;;;1.40;;
13487;SDS011;6816;48.506;9.050;2022-10-31T04:02:42;2.37;;;1.30;;
13487;SDS011;6816;48.506;9.050;2022-10-31T04:05:51;1.40;;;1.30;;
13487;SDS011;6816;48.506;9.050;2022-10-31T04:08:56;1.57;;;1.30;;
13487;SDS011;6816;48.506;9.050;2022-10-31T04:12:00;1.20;;;1.00;;
13487;SDS011;6816;48.506;9.050;2022-10-31T04:15:05;1.20;;;1.10;;
13487;SDS011;6816;48.506;9.050;2022-10-31T04:18:07;3.70;;;1.10;;
13487;SDS011;6816;48.506;9.050;2022-10-31T04:21:08;1.43;;;1.33;;
13487;SDS011;6816;48.506;9.050;2022-10-31T04:24:09;1.30;;;1.20;;
13487;SDS011;6816;48.506;9.050;2022-10-31T04:27:10;4.00;;;1.60;;
13487;SDS011;6816;48.506;9.050;2022-10-31T04:30:11;2.30;;;1.43;;
13487;SDS011;6816;48.506;9.050;2022-10-31T04:33:12;3.63;;;1.30;;
13487;SDS011;6816;48.506;9.050;2022-10-31T04:36:12;2.83;;;1.53;;
13487;SDS011;6816;48.506;9.050;2022-10-31T04:39:13;2.87;;;1.80;;
13487;SDS011;6816;48.506;9.050;2022-10-31T04:42:14;2.40;;;1.70;;
13487;SDS011;6816;48.506;9.050;2022-10-31T04:45:14;2.30;;;1.90;;
13487;SDS011;6816;48.506;9.050;2022-10-31T04:48:15;2.67;;;1.70;;
13487;SDS011;6816;48.506;9.050;2022-10-31T04:51:16;3.07;;;1.87;;
13487;SDS011;6816;48.506;9.050;2022-10-31T04:54:17;6.13;;;2.00;;
13487;SDS011;6816;48.506;9.050;2022-10-31T04:57:17;5.50;;;2.43;;
13487;SDS011;6816;48.506;9.050;2022-10-31T05:00:18;3.20;;;1.67;;
13487;SDS011;6816;48.506;9.050;2022-10-31T05:03:21;2.30;;;1.60;;
13487;SDS011;6816;48.506;9.050;2022-10-31T05:06:21;3.33;;;2.10;;
13487;SDS011;6816;48.506;9.050;2022-10-31T05:09:22;2.53;;;2.00;;
13487;SDS011;6816;48.506;9.050;2022-10-31T05:12:23;3.50;;;2.13;;
13487;SDS011;6816;48.506;9.050;2022-10-31T05:15:24;3.13;;;2.27;;
13487;SDS011;6816;48.506;9.050;2022-10-31T05:18:26;3.53;;;1.77;;
13487;SDS011;6816;48.506;9.050;2022-10-31T05:21:26;4.33;;;2.40;;
13487;SDS011;6816;48.506;9.050;2022-10-31T05:24:27;2.93;;;2.20;;
13487;SDS011;6816;48.506;9.050;2022-10-31T05:27:28;3.43;;;3.07;;
13487;SDS011;6816;48.506;9.050;2022-10-31T05:30:29;6.13;;;2.67;;
13487;SDS011;6816;48.506;9.050;2022-10-31T05:33:31;3.87;;;2.47;;
13487;SDS011;6816;48.506;9.050;2022-10-31T05:36:31;5.23;;;2.50;;
13487;SDS011;6816;48.506;9.050;2022-10-31T05:39:32;2.97;;;2.13;;
13487;SDS011;6816;48.506;9.050;2022-10-31T05:42:33;3.33;;;1.70;;
13487;SDS011;6816;48.506;9.050;2022-10-31T05:45:34;2.77;;;1.43;;
13487;SDS011;6816;48.506;9.050;2022-10-31T05:48:34;4.03;;;1.63;;
13487;SDS011;6816;48.506;9.050;2022-10-31T05:51:35;3.33;;;1.50;;
13487;SDS011;6816;48.506;9.050;2022-10-31T05:54:35;2.50;;;1.50;;
13487;SDS011;6816;48.506;9.050;2022-10-31T05:57:36;5.47;;;1.80;;
13487;SDS011;6816;48.506;9.050;2022-10-31T06:00:37;4.10;;;2.00;;
13487;SDS011;6816;48.506;9.050;2022-10-31T06:03:38;2.57;;;1.77;;
13487;SDS011;6816;48.506;9.050;2022-10-31T06:06:39;2.73;;;1.80;;
13487;SDS011;6816;48.506;9.050;2022-10-31T06:09:39;3.90;;;1.93;;
13487;SDS011;6816;48.506;9.050;2022-10-31T06:12:40;2.27;;;1.87;;
13487;SDS011;6816;48.506;9.050;2022-10-31T06:15:41;2.70;;;1.63;;
13487;SDS011;6816;48.506;9.050;2022-10-31T06:18:42;2.03;;;1.77;;
13487;SDS011;6816;48.506;9.050;2022-10-31T06:21:42;2.67;;;1.77;;
13487;SDS011;6816;48.506;9.050;2022-10-31T06:24:43;1.83;;;1.50;;
13487;SDS011;6816;48.506;9.050;2022-10-31T06:27:43;3.03;;;2.10;;
13487;SDS011;6816;48.506;9.050;2022-10-31T06:30:45;2.17;;;1.87;;
13487;SDS011;6816;48.506;9.050;2022-10-31T06:33:45;1.70;;;1.60;;
13487;SDS011;6816;48.506;9.050;2022-10-31T06:36:46;2.40;;;1.87;;
13487;SDS011;6816;48.506;9.050;2022-10-31T06:39:47;4.40;;;1.83;;
13487;SDS011;6816;48.506;9.050;2022-10-31T06:42:55;2.73;;;1.70;;
13487;SDS011;6816;48.506;9.050;2022-10-31T06:46:03;4.47;;;1.90;;
13487;SDS011;6816;48.506;9.050;2022-10-31T06:49:04;2.50;;;2.27;;
13487;SDS011;6816;48.506;9.050;2022-10-31T06:52:05;2.90;;;2.23;;
13487;SDS011;6816;48.506;9.050;2022-10-31T06:55:06;3.97;;;2.33;;
13487;SDS011;6816;48.506;9.050;2022-10-31T06:58:08;3.13;;;2.57;;
13487;SDS011;6816;48.506;9.050;2022-10-31T07:01:09;4.63;;;2.40;;
13487;SDS011;6816;48.506;9.050;2022-10-31T07:04:10;3.13;;;2.30;;
13487;SDS011;6816;48.506;9.050;2022-10-31T07:07:11;4.63;;;2.63;;
13487;SDS011;6816;48.506;9.050;2022-10-31T07:10:12;5.87;;;3.00;;
13487;SDS011;6816;48.506;9.050;2022-10-31T07:13:13;7.13;;;2.93;;
13487;SDS011;6816;48.506;9.050;2022-10-31T07:16:14;6.03;;;3.23;;
13487;SDS011;6816;48.506;9.050;2022-10-31T07:19:14;4.77;;;3.20;;
13487;SDS011;6816;48.506;9.050;2022-10-31T07:22:15;3.03;;;2.53;;
13487;SDS011;6816;48.506;9.050;2022-10-31T07:25:16;3.53;;;2.23;;
13487;SDS011;6816;48.506;9.050;2022-10-31T07:28:16;4.17;;;2.40;;
13487;SDS011;6816;48.506;9.050;2022-10-31T07:31:17;2.33;;;2.10;;
13487;SDS011;6816;48.506;9.050;2022-10-31T07:34:17;3.23;;;2.03;;
13487;SDS011;6816;48.506;9.050;2022-10-31T07:37:18;4.13;;;2.37;;
13487;SDS011;6816;48.506;9.050;2022-10-31T07:40:19;3.27;;;2.50;;
13487;SDS011;6816;48.506;9.050;2022-10-31T07:43:19;4.27;;;2.83;;
13487;SDS011;6816;48.506;9.050;2022-10-31T07:46:21;3.40;;;2.40;;
13487;SDS011;6816;48.506;9.050;2022-10-31T07:49:22;4.00;;;2.70;;
13487;SDS011;6816;48.506;9.050;2022-10-31T07:52:25;5.27;;;2.57;;
13487;SDS011;6816;48.506;9.050;2022-10-31T07:55:26;4.13;;;2.50;;
13487;SDS011;6816;48.506;9.050;2022-10-31T07:58:27;3.47;;;2.53;;
13487;SDS011;6816;48.506;9.050;2022-10-31T08:01:28;6.80;;;3.10;;
13487;SDS011;6816;48.506;9.050;2022-10-31T08:04:28;4.93;;;2.60;;
13487;SDS011;6816;48.506;9.050;2022-10-31T08:07:29;3.93;;;2.80;;
13487;SDS011;6816;48.506;9.050;2022-10-31T08:10:35;5.13;;;3.03;;
13487;SDS011;6816;48.506;9.050;2022-10-31T08:13:37;5.27;;;3.33;;
13487;SDS011;6816;48.506;9.050;2022-10-31T08:16:37;3.90;;;3.27;;
13487;SDS011;6816;48.506;9.050;2022-10-31T08:19:38;6.30;;;3.17;;
13487;SDS011;6816;48.506;9.050;2022-10-31T08:22:39;4.67;;;3.20;;
13487;SDS011;6816;48.506;9.050;2022-10-31T08:25:39;4.57;;;3.23;;
13487;SDS011;6816;48.506;9.050;2022-10-31T08:28:41;4.93;;;3.03;;
13487;SDS011;6816;48.506;9.050;2022-10-31T08:31:42;5.50;;;3.20;;
13487;SDS011;6816;48.506;9.050;2022-10-31T08:34:43;4.87;;;3.13;;
13487;SDS011;6816;48.506;9.050;2022-10-31T08:37:43;4.70;;;3.60;;
13487;SDS011;6816;48.506;9.050;2022-10-31T08:40:47;4.80;;;3.03;;
13487;SDS011;6816;48.506;9.050;2022-10-31T08:43:49;4.23;;;3.07;;
13487;SDS011;6816;48.506;9.050;2022-10-31T08:46:49;4.63;;;3.13;;
13487;SDS011;6816;48.506;9.050;2022-10-31T08:49:50;4.13;;;3.27;;
13487;SDS011;6816;48.506;9.050;2022-10-31T08:52:50;7.57;;;3.53;;
13487;SDS011;6816;48.506;9.050;2022-10-31T08:55:53;4.80;;;3.13;;
13487;SDS011;6816;48.506;9.050;2022-10-31T08:58:55;4.57;;;2.87;;
13487;SDS011;6816;48.506;9.050;2022-10-31T09:01:55;4.83;;;3.87;;
13487;SDS011;6816;48.506;9.050;2022-10-31T09:04:56;4.63;;;3.23;;
13487;SDS011;6816;48.506;9.050;2022-10-31T09:07:57;3.50;;;2.67;;
13487;SDS011;6816;48.506;9.050;2022-10-31T09:10:59;5.80;;;3.37;;
13487;SDS011;6816;48.506;9.050;2022-10-31T09:13:59;5.13;;;3.40;;
13487;SDS011;6816;48.506;9.050;2022-10-31T09:17:00;6.10;;;3.40;;
13487;SDS011;6816;48.506;9.050;2022-10-31T09:20:00;5.70;;;3.20;;
13487;SDS011;6816;48.506;9.050;2022-10-31T09:23:05;5.17;;;3.27;;
13487;SDS011;6816;48.506;9.050;2022-10-31T09:26:06;4.90;;;3.70;;
13487;SDS011;6816;48.506;9.050;2022-10-31T09:29:06;3.87;;;3.43;;
13487;SDS011;6816;48.506;9.050;2022-10-31T09:32:09;5.60;;;3.13;;
13487;SDS011;6816;48.506;9.050;2022-10-31T09:35:10;5.77;;;3.40;;
13487;SDS011;6816;48.506;9.050;2022-10-31T09:38:11;4.63;;;3.27;;
13487;SDS011;6816;48.506;9.050;2022-10-31T09:41:21;6.37;;;3.70;;
13487;SDS011;6816;48.506;9.050;2022-10-31T09:54:53;3.70;;;3.13;;
13487;SDS011;6816;48.506;9.050;2022-10-31T09:57:58;8.37;;;3.53;;
13487;SDS011;6816;48.506;9.050;2022-10-31T10:01:01;5.03;;;3.23;;
13487;SDS011;6816;48.506;9.050;2022-10-31T10:07:44;7.27;;;3.53;;
13487;SDS011;6816;48.506;9.050;2022-10-31T10:10:55;4.53;;;3.43;;
13487;SDS011;6816;48.506;9.050;2022-10-31T10:14:06;7.50;;;3.70;;
13487;SDS011;6816;48.506;9.050;2022-10-31T10:30:29;5.37;;;3.17;;
13487;SDS011;6816;48.506;9.050;2022-10-31T10:37:05;5.50;;;3.07;;
13487;SDS011;6816;48.506;9.050;2022-10-31T10:40:18;4.57;;;3.20;;
13487;SDS011;6816;48.506;9.050;2022-10-31T10:43:35;5.60;;;3.67;;
13487;SDS011;6816;48.506;9.050;2022-10-31T10:46:41;3.90;;;3.23;;
13487;SDS011;6816;48.506;9.050;2022-10-31T10:50:19;7.50;;;3.60;;
13487;SDS011;6816;48.506;9.050;2022-10-31T10:53:35;7.47;;;3.50;;
13487;SDS011;6816;48.506;9.050;2022-10-31T10:57:18;5.68;;;3.38;;
13487;SDS011;6816;48.506;9.050;2022-10-31T11:00:31;4.57;;;3.33;;
13487;SDS011;6816;48.506;9.050;2022-10-31T11:03:34;5.60;;;3.45;;
13487;SDS011;6816;48.506;9.050;2022-10-31T11:06:36;3.85;;;3.17;;
13487;SDS011;6816;48.506;9.050;2022-10-31T11:09:37;5.22;;;3.20;;
13487;SDS011;6816;48.506;9.050;2022-10-31T11:12:38;4.07;;;3.08;;
13487;SDS011;6816;48.506;9.050;2022-10-31T11:22:22;4.85;;;3.15;;
13487;SDS011;6816;48.506;9.050;2022-10-31T11:25:24;6.47;;;2.95;;
13487;SDS011;6816;48.506;9.050;2022-10-31T11:28:27;5.30;;;2.47;;
13487;SDS011;6816;48.506;9.050;2022-10-31T11:31:34;4.97;;;2.95;;
13487;SDS011;6816;48.506;9.050;2022-10-31T11:34:36;5.28;;;2.70;;
13487;SDS011;6816;48.506;9.050;2022-10-31T11:37:45;4.65;;;2.88;;
13487;SDS011;6816;48.506;9.050;2022-10-31T11:40:56;4.63;;;2.53;;
13487;SDS011;6816;48.506;9.050;2022-10-31T11:44:13;4.22;;;3.17;;
13487;SDS011;6816;48.506;9.050;2022-10-31T11:47:29;6.97;;;3.00;;
13487;SDS011;6816;48.506;9.050;2022-10-31T11:50:39;7.68;;;3.47;;
13487;SDS011;6816;48.506;9.050;2022-10-31T11:53:47;6.05;;;3.28;;
13487;SDS011;6816;48.506;9.050;2022-10-31T11:56:52;4.57;;;3.28;;
13487;SDS011;6816;48.506;9.050;2022-10-31T11:59:53;6.63;;;3.53;;
13487;SDS011;6816;48.506;9.050;2022-10-31T12:06:34;6.53;;;3.05;;
13487;SDS011;6816;48.506;9.050;2022-10-31T12:09:37;3.97;;;2.90;;
13487;SDS011;6816;48.506;9.050;2022-10-31T12:12:41;3.88;;;2.90;;
13487;SDS011;6816;48.506;9.050;2022-10-31T12:15:50;5.03;;;3.05;;
13487;SDS011;6816;48.506;9.050;2022-10-31T12:19:04;3.95;;;2.78;;
13487;SDS011;6816;48.506;9.050;2022-10-31T12:22:12;4.97;;;3.13;;
13487;SDS011;6816;48.506;9.050;2022-10-31T12:32:43;3.83;;;3.10;;
13487;SDS011;6816;48.506;9.050;2022-10-31T12:39:53;4.07;;;2.83;;
